ADDS METAR Data INFO
IDs: Format: Raw Decoded Include TAF

Data at: 1122 UTC 17 Jul 2018

KM08 160915Z AUTO 00000KT 4SM BR FEW006 SCT014 BKN020 24/23 A2998 RMK A01
KM08 160855Z AUTO 32006KT 9SM SCT009 BKN028 OVC040 24/23 A2999 RMK A01 P0018
KM08 160835Z AUTO 16006G12KT 6SM BR FEW003 BKN034 OVC060 24/23 A2996 RMK A01
KM08 160815Z AUTO 25003G11KT 1 3/4SM BR BKN003 BKN036 OVC060 24/23 A2998 RMK A01
KM08 160755Z AUTO 23007KT 10SM FEW037 SCT049 BKN065 24/23 A2999 RMK A01
KM08 160735Z AUTO 17004KT 10SM BKN050 BKN060 OVC090 24/23 A2998 RMK A01
KM08 160715Z AUTO 00000KT 10SM SCT050 BKN060 OVC095 24/23 A2999 RMK A01
KM08 160655Z AUTO 19004KT 10SM FEW044 BKN080 OVC095 24/23 A3000 RMK A01
KM08 160635Z AUTO 18005KT 10SM OVC080 24/23 A3000 RMK A01
KM08 160615Z AUTO 16004KT 10SM FEW050 BKN080 OVC100 24/23 A3000 RMK A01
KM08 160555Z AUTO 17005KT 10SM SCT060 OVC100 24/23 A3000 RMK A01
KM08 160535Z AUTO 17004KT 10SM SCT060 OVC100 24/23 A3000 RMK A01
KM08 160515Z AUTO 17003KT 10SM SCT095 24/23 A3001 RMK A01
KM08 160455Z AUTO 14004KT 10SM CLR 24/23 A3001 RMK A01
KM08 160435Z AUTO 12004KT 10SM FEW038 FEW050 SCT065 24/23 A3000 RMK A01
KM08 160415Z AUTO 14006KT 10SM FEW026 SCT042 BKN055 24/23 A3001 RMK A01
KM08 160355Z AUTO 13004KT 10SM SCT033 BKN042 OVC100 24/23 A3002 RMK A01
KM08 160335Z AUTO 00000KT 10SM FEW037 SCT043 BKN065 24/23 A3003 RMK A01
KM08 160315Z AUTO 02003KT 10SM SCT036 BKN043 BKN049 24/23 A3003 RMK A01
KM08 160255Z AUTO 00000KT 10SM FEW036 BKN047 24/23 A3001 RMK A01
KM08 160235Z AUTO 12004KT 10SM SCT048 SCT055 24/23 A3002 RMK A01
KM08 160215Z AUTO 00000KT 10SM FEW046 FEW050 24/23 A3002 RMK A01
KM08 160155Z AUTO 00000KT 10SM FEW041 SCT050 24/23 A3000 RMK A01
KM08 160135Z AUTO 00000KT 10SM FEW040 FEW049 24/23 A3001 RMK A01
KM08 160115Z AUTO 00000KT 10SM SCT011 24/23 A3000 RMK A01
KM08 160055Z AUTO 30006G12KT 10SM FEW010 SCT030 SCT036 25/23 A3002 RMK A01
KM08 160035Z AUTO 00000KT 10SM FEW060 FEW070 25/23 A2998 RMK A01
KM08 160015Z AUTO 09003KT 10SM FEW043 FEW055 FEW070 25/23 A3000 RMK A01
KM08 152355Z AUTO 09003KT 10SM FEW050 FEW065 25/23 A3001 RMK A01
KM08 152335Z AUTO 09005KT 10SM FEW014 SCT042 BKN050 26/23 A3001 RMK A01